M I D A S
Marine Information and Data Acquisition System
Tripno 731 of the Zeeleeuw from 2004-06-08 06:06:44 to 2004-06-08 15:33:51
Back to CruiseResearch ActivitiesStationsMapUnderway DataData graphs

EquipmentUnitsComment
TimeDGPSUTC
LatitudeDGPSDM.mWGS84
LongitudeDGPSDM.mWGS84
HeadingGyrodeg 
SOGDGPSknotsSpeed over ground
COGDGPSdegCourse over ground
DepthEcho soundermeters200 kHz
Missing or incorrect values are displayed as -999
Navigation data collected by the RV Zeeleeuw from 2004-06-08 06:06:44 to 2004-06-08 15:33:51
Time Latitude Longitude Heading SOG COG Depth
2004-06-08 06:07:46 51°13.599 2°56.098 117.7 0.1 185 8.9
2004-06-08 06:08:45 51°13.605 2°56.062 115.7 3.5 292 -999
2004-06-08 06:09:47 51°13.639 2°55.941 121.6 5.5 297 -999
2004-06-08 06:10:46 51°13.675 2°55.808 107.4 5.6 285 -999
2004-06-08 06:11:45 51°13.694 2°55.76 52.1 2.8 37 16.1
2004-06-08 06:12:47 51°13.693 2°55.76 23.2 0.6 211 -999
2004-06-08 06:13:45 51°13.743 2°55.719 326.7 5.1 323 11.8
2004-06-08 06:14:46 51°13.846 2°55.633 341.8 7.8 337 11.5
2004-06-08 06:15:46 51°13.971 2°55.56 345.3 8.1 340 12.9
2004-06-08 06:16:46 51°14.103 2°55.47 339.2 9.3 333 13
2004-06-08 06:17:53 51°14.251 2°55.297 321.9 10.7 316 13.2
2004-06-08 06:18:54 51°14.374 2°55.05 309.4 12.5 303 12.7
2004-06-08 06:19:52 51°14.502 2°54.775 314.7 13.6 313 12.2
2004-06-08 06:21:09 51°14.702 2°54.452 315 13.3 314 11.8
2004-06-08 06:22:07 51°14.842 2°54.197 310.2 13.3 307 11.2
2004-06-08 06:23:09 51°14.964 2°53.894 300.6 13.2 298 11.1
2004-06-08 06:24:08 51°15.068 2°53.593 302.9 13.2 300 11.4
2004-06-08 06:25:08 51°15.175 2°53.291 303.2 13.1 300 11.7
2004-06-08 06:26:08 51°15.286 2°52.989 302.5 13.3 300 12.4
2004-06-08 06:27:09 51°15.402 2°52.682 303 13.2 299 13
2004-06-08 06:28:09 51°15.444 2°52.348 278.8 13 277 13.4
2004-06-08 06:29:09 51°15.464 2°52.006 274.1 12.8 271 13.8
2004-06-08 06:30:09 51°15.451 2°51.666 264.9 12.8 263 14.2
2004-06-08 06:31:09 51°15.421 2°51.329 265.4 12.9 263 14.3
2004-06-08 06:32:09 51°15.392 2°50.988 264.8 12.9 259 14.4
2004-06-08 06:33:17 51°15.339 2°50.608 260.6 13 258 14.5
2004-06-08 06:34:21 51°15.291 2°50.249 260.3 13 259 14.4
2004-06-08 06:35:20 51°15.254 2°49.917 262.6 12.9 261 14.4
2004-06-08 06:36:21 51°15.217 2°49.573 263.4 13 260 14.4
2004-06-08 06:37:21 51°15.178 2°49.234 263.3 13.1 260 14.4
2004-06-08 06:38:20 51°15.141 2°48.897 262.9 13.1 260 14.4
2004-06-08 06:39:20 51°15.103 2°48.555 262.1 13.1 259 14.4
2004-06-08 06:40:21 51°15.064 2°48.207 262.2 13.1 259 14.5
2004-06-08 06:41:21 51°15.028 2°47.865 263.4 13.1 261 14.4
2004-06-08 06:42:22 51°14.994 2°47.516 263 13.1 261 13
2004-06-08 06:43:22 51°14.959 2°47.175 263.6 12.9 261 11.8
2004-06-08 06:44:26 51°14.923 2°46.814 263.9 13 262 10.6
2004-06-08 06:45:30 51°14.888 2°46.451 263.4 13 261 10.5
2004-06-08 06:46:30 51°14.855 2°46.106 263.7 13.1 261 11
2004-06-08 06:47:29 51°14.815 2°45.768 260.8 13.3 259 12.3
2004-06-08 06:48:38 51°14.765 2°45.371 261.7 13.3 259 13.5
2004-06-08 06:49:38 51°14.722 2°45.025 261.5 13.3 259 14.6
2004-06-08 06:50:36 51°14.681 2°44.691 261.7 13.3 260 15.7
2004-06-08 06:51:42 51°14.635 2°44.312 261.1 13.2 259 16.5
2004-06-08 06:52:42 51°14.592 2°43.97 262 13.2 259 17.2
2004-06-08 06:53:41 51°14.552 2°43.631 261.5 13.2 259 17
2004-06-08 06:54:41 51°14.513 2°43.285 261.7 13.2 260 17.9
2004-06-08 06:55:42 51°14.471 2°42.936 260.8 13.2 260 18.5
2004-06-08 06:56:42 51°14.431 2°42.591 261.5 13.2 260 18.4
2004-06-08 06:57:46 51°14.391 2°42.223 261 13.3 260 18.4
2004-06-08 06:58:45 51°14.352 2°41.883 261.3 13.2 259 17.6
2004-06-08 06:59:45 51°14.307 2°41.538 261.3 13.2 259 16
2004-06-08 07:00:46 51°14.275 2°41.187 268.4 13.2 266 15.3
2004-06-08 07:01:52 51°14.255 2°40.801 267.8 13.4 265 15.8
2004-06-08 07:02:55 51°14.236 2°40.432 266.9 13.4 265 15.2
2004-06-08 07:03:56 51°14.218 2°40.071 267.1 13.4 265 14.7
2004-06-08 07:04:56 51°14.202 2°39.716 267.3 13.3 266 14.4
2004-06-08 07:05:56 51°14.187 2°39.365 267.2 13.2 266 14.2
2004-06-08 07:06:55 51°14.169 2°39.022 266.6 13.2 264 12.4
2004-06-08 07:07:56 51°14.151 2°38.662 267.5 13.5 266 14.8
2004-06-08 07:08:55 51°14.113 2°38.316 259.6 13.5 257 17.9
2004-06-08 07:10:00 51°14.057 2°37.942 254.7 13.3 252 19.1
2004-06-08 07:11:02 51°13.973 2°37.602 250.7 13.4 249 19.7
2004-06-08 07:12:02 51°13.891 2°37.273 250.8 13.4 249 20.8
2004-06-08 07:13:01 51°13.811 2°36.947 250.3 13.4 249 20.7
2004-06-08 07:14:02 51°13.725 2°36.615 246 13.3 244 20.2
2004-06-08 07:15:07 51°13.616 2°36.275 244.4 13.4 242 20.1
2004-06-08 07:16:05 51°13.518 2°35.969 245.4 13.4 244 17.4
2004-06-08 07:17:05 51°13.419 2°35.652 246.1 13.3 245 18.2
2004-06-08 07:18:04 51°13.322 2°35.345 244.9 13.1 243 18.1
2004-06-08 07:19:06 51°13.212 2°35.033 241.8 13.1 241 17.4
2004-06-08 07:20:06 51°13.106 2°34.73 242.5 13.1 241 18
2004-06-08 07:21:05 51°13.001 2°34.434 241.3 13.1 240 18
2004-06-08 07:22:07 51°12.891 2°34.122 242.4 13.1 241 17.6
2004-06-08 07:23:12 51°12.777 2°33.793 241.6 13.1 241 16.8
2004-06-08 07:24:12 51°12.671 2°33.491 242 13.1 241 15.7
2004-06-08 07:25:13 51°12.566 2°33.183 242.6 13 242 15.5
2004-06-08 07:26:18 51°12.466 2°32.845 248.1 13.1 246 15.6
2004-06-08 07:27:19 51°12.377 2°32.522 247 13.1 246 16.9
2004-06-08 07:28:15 51°12.296 2°32.225 248 13.1 247 17.9
2004-06-08 07:29:18 51°12.204 2°31.888 247.7 13.2 246 19.3
2004-06-08 07:30:19 51°12.112 2°31.56 247.5 13.3 246 21.2
2004-06-08 07:31:18 51°12.022 2°31.242 246.9 13.4 245 21.6
2004-06-08 07:32:19 51°11.929 2°30.912 247.2 13.5 246 21.9
2004-06-08 07:33:18 51°11.839 2°30.59 247.5 13.6 246 22.9
2004-06-08 07:34:18 51°11.746 2°30.26 247.6 13.6 246 23
2004-06-08 07:35:18 51°11.653 2°29.929 247.3 13.7 246 22.9
2004-06-08 07:36:18 51°11.563 2°29.596 250.9 13.8 250 23.3
2004-06-08 07:37:26 51°11.489 2°29.2 256.5 13.8 254 24.7
2004-06-08 07:38:24 51°11.424 2°28.861 256 13.8 253 23.8
2004-06-08 07:39:27 51°11.353 2°28.493 255.4 13.9 253 23.4
2004-06-08 07:40:32 51°11.28 2°28.111 255.6 13.9 253 23.1
2004-06-08 07:41:31 51°11.215 2°27.765 255.6 13.9 253 22
2004-06-08 07:42:31 51°11.149 2°27.413 258.2 13.8 256 24.1
2004-06-08 07:43:32 51°11.097 2°27.048 260.4 13.8 258 22.5
2004-06-08 07:44:32 51°11.045 2°26.692 259 13.8 256 22.9
2004-06-08 07:45:32 51°10.993 2°26.337 259.3 13.8 257 20
2004-06-08 07:46:32 51°10.942 2°25.98 259.6 13.8 257 17.8
2004-06-08 07:47:32 51°10.89 2°25.623 258.9 13.9 257 15.7
2004-06-08 07:48:32 51°10.838 2°25.263 257.6 13.8 256 13.5
2004-06-08 07:49:31 51°10.781 2°24.912 257.1 13.9 255 13.5
2004-06-08 07:50:32 51°10.695 2°24.565 245.8 13.8 243 18.6
2004-06-08 07:51:32 51°10.581 2°24.248 242.4 13.9 240 26
2004-06-08 07:52:32 51°10.466 2°23.931 242.9 13.8 241 25.5
2004-06-08 07:53:32 51°10.357 2°23.607 245.3 13.8 242 26.1
2004-06-08 07:54:38 51°10.24 2°23.25 245.1 13.9 243 28.4
2004-06-08 07:55:38 51°10.134 2°22.924 245.3 13.9 243 26.8
2004-06-08 07:56:38 51°10.028 2°22.597 245.3 14 243 26.2
2004-06-08 07:57:37 51°9.924 2°22.275 244.7 13.9 243 27.3
2004-06-08 07:58:37 51°9.819 2°21.945 245.4 14 243 28.3
2004-06-08 07:59:38 51°9.712 2°21.607 245.1 14 244 29.1
2004-06-08 08:00:38 51°9.608 2°21.275 245.2 14 243 28
2004-06-08 08:01:37 51°9.505 2°20.947 245.3 14.1 244 26.2
2004-06-08 08:02:38 51°9.398 2°20.607 245.5 14.1 244 25.7
2004-06-08 08:03:38 51°9.299 2°20.267 250.2 14.2 249 22.9
2004-06-08 08:04:38 51°9.217 2°19.912 252.2 14.3 250 23
2004-06-08 08:05:38 51°9.135 2°19.556 250.8 14.4 249 20
2004-06-08 08:06:38 51°9.052 2°19.198 251.1 14.4 250 22.6
2004-06-08 08:07:46 51°9.008 2°18.774 271.6 14.5 268 22.7
2004-06-08 08:08:46 51°9.01 2°18.388 275.8 14.6 271 24.7
2004-06-08 08:09:46 51°9.012 2°18.004 274.7 14.5 271 25
2004-06-08 08:10:46 51°9.024 2°17.625 280.7 14.3 276 25.1
2004-06-08 08:11:46 51°9.046 2°17.249 280.5 14.2 275 21.4
2004-06-08 08:12:46 51°9.065 2°16.875 279.3 14.2 275 16.8
2004-06-08 08:13:46 51°9.088 2°16.5 279.7 14.2 276 15.4
2004-06-08 08:14:46 51°9.11 2°16.123 279.5 14.4 275 14.2
2004-06-08 08:15:46 51°9.133 2°15.742 279.2 14.5 275 15.3
2004-06-08 08:16:46 51°9.147 2°15.357 274.3 14.5 270 20.2
2004-06-08 08:17:46 51°9.114 2°14.977 258.6 14.5 256 27.1
2004-06-08 08:18:46 51°9.038 2°14.613 248.6 14.4 247 31.9
2004-06-08 08:19:46 51°8.943 2°14.261 248.5 14.5 246 33.5
2004-06-08 08:20:46 51°8.8 2°13.961 227.6 14.3 228 33.6
2004-06-08 08:21:46 51°8.647 2°13.671 232.7 14.3 232 32.3
2004-06-08 08:22:46 51°8.502 2°13.369 233.7 14.3 233 30.2
2004-06-08 08:23:46 51°8.353 2°13.077 230.8 14.2 229 29.1
2004-06-08 08:24:46 51°8.196 2°12.795 228.2 14.2 227 28
2004-06-08 08:25:46 51°8.037 2°12.52 228.8 14.1 228 26.1
2004-06-08 08:26:50 51°7.868 2°12.226 229.4 14.1 228 24.7
2004-06-08 08:27:50 51°7.711 2°11.949 229.2 14.1 228 23.5
2004-06-08 08:28:49 51°7.556 2°11.678 229.3 14 228 22.3
2004-06-08 08:29:50 51°7.396 2°11.4 228.8 14 228 20.9
2004-06-08 08:30:50 51°7.241 2°11.123 229.6 14.1 229 18.7
2004-06-08 08:31:49 51°7.089 2°10.849 229.1 14.1 228 17
2004-06-08 08:32:50 51°6.93 2°10.566 229 14 228 14.9
2004-06-08 08:33:51 51°6.771 2°10.282 229.7 14.1 229 14.4
2004-06-08 08:34:51 51°6.615 2°10.002 229.4 14.1 229 12.7
2004-06-08 08:35:50 51°6.482 2°9.766 227.4 9.8 228 12.8
2004-06-08 08:36:50 51°6.406 2°9.592 245.6 6.6 246 12.2
2004-06-08 08:37:50 51°6.39 2°9.452 273.6 4.7 269 12.6
2004-06-08 08:38:51 51°6.395 2°9.341 290.8 3.8 279 13.2
2004-06-08 08:39:50 51°6.408 2°9.253 300.5 3.5 285 13.3
2004-06-08 08:40:50 51°6.399 2°9.138 240.8 4.6 243 13.9
2004-06-08 08:41:50 51°6.358 2°9.058 218.4 3.7 230 13.3
2004-06-08 08:42:51 51°6.32 2°8.988 218.3 3.3 229 13.6
2004-06-08 08:43:50 51°6.287 2°8.922 223.3 3.1 234 13
2004-06-08 08:44:50 51°6.26 2°8.854 233.1 3 242 13.1
2004-06-08 08:45:51 51°6.238 2°8.784 236.6 3 245 11.9
2004-06-08 08:46:50 51°6.215 2°8.717 232.1 2.9 241 13.3
2004-06-08 08:47:50 51°6.191 2°8.653 227.8 2.8 238 13.2
2004-06-08 08:48:50 51°6.165 2°8.59 223.9 2.8 235 12.7
2004-06-08 08:49:50 51°6.139 2°8.53 220.6 2.7 232 12.2
2004-06-08 08:50:50 51°6.111 2°8.472 217.6 2.8 232 12.9
2004-06-08 08:51:50 51°6.082 2°8.415 217.5 2.8 234 11.4
2004-06-08 08:52:50 51°6.054 2°8.358 218.6 2.8 234 12.5
2004-06-08 08:53:50 51°6.026 2°8.3 220.9 2.8 232 12.8
2004-06-08 08:54:50 51°5.999 2°8.239 225 2.8 237 12.7
2004-06-08 08:55:50 51°5.973 2°8.177 227.6 2.8 238 12.5
2004-06-08 08:56:50 51°5.948 2°8.115 228 2.8 238 12
2004-06-08 08:57:50 51°5.922 2°8.052 230.4 2.9 237 12.6
2004-06-08 08:58:50 51°5.9 2°7.988 241.6 2.7 243 12.1
2004-06-08 08:59:51 51°5.882 2°7.922 248.9 2.7 247 12.7
2004-06-08 09:00:51 51°5.866 2°7.854 254.3 2.8 252 12.8
2004-06-08 09:01:48 51°5.852 2°7.787 254.7 2.8 250 13
2004-06-08 09:02:49 51°5.835 2°7.714 254.1 3 251 9.9
2004-06-08 09:03:51 51°5.817 2°7.639 255.1 3 249 12.7
2004-06-08 09:04:51 51°5.803 2°7.57 257.7 2.7 251 12.4
2004-06-08 09:05:50 51°5.789 2°7.506 256.9 2.6 250 11
2004-06-08 09:06:50 51°5.773 2°7.439 255.4 2.7 248 11.9
2004-06-08 09:07:51 51°5.758 2°7.374 256.6 2.5 250 13.4
2004-06-08 09:08:50 51°5.744 2°7.312 258 2.6 251 13.5
2004-06-08 09:09:49 51°5.731 2°7.249 264.2 2.6 251 13.2
2004-06-08 09:10:50 51°5.718 2°7.177 271.6 3 258 14
2004-06-08 09:11:50 51°5.71 2°7.094 279.2 3.2 265 12.6
2004-06-08 09:12:51 51°5.702 2°7.003 284.3 3.5 263 13.1
2004-06-08 09:13:49 51°5.699 2°6.92 287.1 3.1 269 14.8
2004-06-08 09:14:53 51°5.699 2°6.834 296 3.1 271 14.7
2004-06-08 09:15:53 51°5.71 2°6.743 311 3.8 286 14.5
2004-06-08 09:16:53 51°5.736 2°6.649 322.2 4 297 14.7
2004-06-08 09:17:53 51°5.771 2°6.56 331.1 3.7 302 15.3
2004-06-08 09:18:53 51°5.798 2°6.49 340.4 2.8 303 13.6
2004-06-08 09:19:53 51°5.82 2°6.433 344.6 2.4 298 15.8
2004-06-08 09:20:53 51°5.836 2°6.382 348.5 2 293 15.1
2004-06-08 09:21:53 51°5.86 2°6.338 10.1 2.9 340 13.8
2004-06-08 09:22:53 51°5.9 2°6.354 50.8 2.2 34 15.4
2004-06-08 09:23:53 51°5.925 2°6.398 60.9 2.5 55 15.7
2004-06-08 09:24:52 51°5.942 2°6.461 71.3 2.7 72 17
2004-06-08 09:25:58 51°5.953 2°6.54 78.2 2.8 83 14.2
2004-06-08 09:26:58 51°5.956 2°6.611 80.2 2.6 86 16.2
2004-06-08 09:27:59 51°5.957 2°6.677 80.8 2.3 88 17.6
2004-06-08 09:28:58 51°5.958 2°6.736 78.6 2.3 86 17.7
2004-06-08 09:29:58 51°5.96 2°6.797 81.5 2.4 90 16.1
2004-06-08 09:30:58 51°5.961 2°6.861 79.1 2.5 84 14
2004-06-08 09:31:58 51°5.966 2°6.923 75.3 2.3 77 15.6
2004-06-08 09:32:59 51°5.974 2°6.985 75 2.5 80 16.3
2004-06-08 09:33:58 51°5.982 2°7.052 75.8 2.6 81 15.1
2004-06-08 09:34:58 51°5.99 2°7.115 74.8 2.5 79 15.5
2004-06-08 09:35:58 51°5.999 2°7.18 73.9 2.5 78 15.1
2004-06-08 09:36:58 51°6.008 2°7.246 75 2.5 80 14.9
2004-06-08 09:37:58 51°6.017 2°7.31 75 2.5 78 14.9
2004-06-08 09:38:58 51°6.026 2°7.376 74.9 2.6 78 13.4
2004-06-08 09:39:58 51°6.034 2°7.439 74.6 2.4 73 14.5
2004-06-08 09:40:58 51°6.043 2°7.503 76.6 2.6 84 13.2
2004-06-08 09:41:58 51°6.05 2°7.567 75.7 2.4 76 14.4
2004-06-08 09:43:00 51°6.058 2°7.633 74.9 2.5 78 14.9
2004-06-08 09:43:58 51°6.067 2°7.696 74.8 2.6 80 13.8
2004-06-08 09:44:59 51°6.075 2°7.763 74.3 2.5 77 14.4
2004-06-08 09:45:58 51°6.083 2°7.828 75.5 2.6 79 14.9
2004-06-08 09:46:59 51°6.092 2°7.897 76.2 2.6 79 12.9
2004-06-08 09:47:58 51°6.098 2°7.961 74.5 2.4 77 14.5
2004-06-08 09:49:04 51°6.107 2°8.03 76.2 2.5 83 14.2
2004-06-08 09:50:04 51°6.115 2°8.096 74.7 2.6 78 13.8
2004-06-08 09:51:08 51°6.124 2°8.169 76.9 2.7 82 12.5
2004-06-08 09:52:08 51°6.133 2°8.235 74 2.5 76 13.5
2004-06-08 09:53:18 51°6.144 2°8.312 75.7 2.6 78 11.8
2004-06-08 09:54:22 51°6.157 2°8.38 65.4 2.5 61 13.4
2004-06-08 09:55:22 51°6.183 2°8.433 55.9 2.6 50 11.8
2004-06-08 09:56:22 51°6.207 2°8.487 64.5 2.5 58 12.3
2004-06-08 09:57:22 51°6.223 2°8.548 67.9 2.5 66 12.6
2004-06-08 09:58:22 51°6.243 2°8.605 61.2 2.3 56 13.1
2004-06-08 09:59:22 51°6.269 2°8.652 53.6 2.5 42 12.2
2004-06-08 10:00:23 51°6.297 2°8.674 36.6 1.6 8 13.8
2004-06-08 10:01:21 51°6.32 2°8.666 20.9 1.4 335 13.6
2004-06-08 10:02:22 51°6.34 2°8.64 8.2 1.5 314 13.6
2004-06-08 10:03:23 51°6.358 2°8.603 355.6 2 304 14
2004-06-08 10:04:21 51°6.376 2°8.552 338.9 2.4 294 14.9
2004-06-08 10:05:24 51°6.389 2°8.484 320.9 2.8 283 14.6
2004-06-08 10:06:32 51°6.396 2°8.398 303.1 3 272 15.9
2004-06-08 10:07:32 51°6.39 2°8.315 277.1 3.2 258 16.5
2004-06-08 10:08:39 51°6.368 2°8.224 250 3.3 242 16.4
2004-06-08 10:09:38 51°6.338 2°8.154 226.1 3.2 230 16.9
2004-06-08 10:10:42 51°6.299 2°8.094 201.7 2.9 221 14.2
2004-06-08 10:11:42 51°6.264 2°8.054 185.8 2.5 214 16.3
2004-06-08 10:12:42 51°6.228 2°8.024 163.5 2.4 204 14.1
2004-06-08 10:13:43 51°6.194 2°8.007 138.7 1.9 193 15.2
2004-06-08 10:14:50 51°6.165 2°8.001 111.1 1.4 184 14.7
2004-06-08 10:15:50 51°6.149 2°8.001 83.4 0.7 180 15.3
2004-06-08 10:16:51 51°6.169 2°8.034 48 5.6 43 14
2004-06-08 10:17:51 51°6.255 2°8.25 64.5 11.1 60 14.5
2004-06-08 10:18:50 51°6.352 2°8.505 63.8 11.6 59 13.9
2004-06-08 10:19:51 51°6.454 2°8.769 63.4 11.5 59 15.3
2004-06-08 10:20:51 51°6.554 2°9.029 64.2 11.5 60 14.9
2004-06-08 10:21:50 51°6.647 2°9.289 66.8 11.5 62 16.5
2004-06-08 10:22:49 51°6.736 2°9.552 66.6 11.5 61 17.1
2004-06-08 10:23:51 51°6.831 2°9.828 66.7 11.5 62 17.3
2004-06-08 10:24:51 51°6.918 2°10.101 69.7 11.6 66 16.3
2004-06-08 10:25:51 51°6.999 2°10.378 70 11.6 65 17.2
2004-06-08 10:26:52 51°7.082 2°10.662 68.9 11.6 65 16.9
2004-06-08 10:27:50 51°7.161 2°10.933 69.6 11.7 66 17.4
2004-06-08 10:28:51 51°7.222 2°11.124 58.2 5 51 17.4
2004-06-08 10:29:50 51°7.269 2°11.169 30.2 2.8 10 18.3
2004-06-08 10:30:50 51°7.314 2°11.186 39.1 2.6 23 19.6
2004-06-08 10:31:51 51°7.345 2°11.23 59.5 2.5 53 19.6
2004-06-08 10:32:49 51°7.369 2°11.283 60.1 2.5 54 19.4
2004-06-08 10:33:50 51°7.395 2°11.338 58.4 2.6 53 20.7
2004-06-08 10:34:50 51°7.421 2°11.39 57.8 2.5 50 20.9
2004-06-08 10:35:49 51°7.447 2°11.442 58.7 2.5 53 21
2004-06-08 10:36:51 51°7.473 2°11.496 58.5 2.5 53 21.1
2004-06-08 10:37:53 51°7.497 2°11.55 61.8 2.4 60 21.5
2004-06-08 10:38:53 51°7.516 2°11.608 65.8 2.5 65 21.1
2004-06-08 10:39:53 51°7.533 2°11.665 65.9 2.5 64 21.2
2004-06-08 10:40:53 51°7.551 2°11.726 65.8 2.5 66 21.4
2004-06-08 10:41:53 51°7.571 2°11.785 63.9 2.5 61 21.1
2004-06-08 10:42:53 51°7.591 2°11.843 63.6 2.5 61 21.3
2004-06-08 10:43:53 51°7.611 2°11.903 65.2 2.6 64 21.3
2004-06-08 10:44:52 51°7.629 2°11.962 64.8 2.6 64 21.3
2004-06-08 10:45:53 51°7.65 2°12.022 63.4 2.5 61 21.1
2004-06-08 10:46:53 51°7.67 2°12.082 64.2 2.6 62 21.1
2004-06-08 10:47:53 51°7.69 2°12.142 64.4 2.6 66 21.2
2004-06-08 10:48:53 51°7.71 2°12.204 64.5 2.6 65 20.7
2004-06-08 10:49:53 51°7.73 2°12.265 64 2.6 63 20.6
2004-06-08 10:50:53 51°7.753 2°12.329 63.7 2.6 62 20.6
2004-06-08 10:51:52 51°7.771 2°12.385 64 2.7 62 20.4
2004-06-08 10:52:53 51°7.794 2°12.449 64.4 2.7 63 20.4
2004-06-08 10:53:53 51°7.816 2°12.511 63.9 2.7 60 20.1
2004-06-08 10:54:53 51°7.84 2°12.574 64.3 2.7 61 20.3
2004-06-08 10:55:52 51°7.863 2°12.636 64.5 2.8 59 19.9
2004-06-08 10:56:53 51°7.886 2°12.699 63.8 2.8 58 20
2004-06-08 10:57:53 51°7.91 2°12.761 63.8 2.8 58 19.7
2004-06-08 10:58:53 51°7.934 2°12.824 64.5 2.8 58 19.3
2004-06-08 10:59:52 51°7.96 2°12.884 57.8 2.8 49 19.2
2004-06-08 11:00:53 51°7.993 2°12.938 55.8 2.8 46 19.4
2004-06-08 11:01:52 51°8.025 2°12.992 57 2.8 46 19.7
2004-06-08 11:02:52 51°8.052 2°13.049 61.7 2.7 57 19.6
2004-06-08 11:03:53 51°8.079 2°13.108 61.4 2.7 54 19.7
2004-06-08 11:04:53 51°8.103 2°13.167 64.5 2.7 58 18.8
2004-06-08 11:05:53 51°8.125 2°13.227 68.5 2.6 65 18
2004-06-08 11:06:53 51°8.143 2°13.28 63.4 1.9 52 17.8
2004-06-08 11:08:00 51°8.168 2°13.304 44.4 1.4 15 18.1
2004-06-08 11:09:00 51°8.189 2°13.303 32.4 1.4 356 18.8
2004-06-08 11:10:00 51°8.227 2°13.307 27.1 3 4 20.8
2004-06-08 11:10:59 51°8.28 2°13.313 26.3 3.1 5 23.1
2004-06-08 11:12:00 51°8.33 2°13.32 30.1 2.8 6 24.2
2004-06-08 11:13:00 51°8.373 2°13.329 32.2 2.5 9 25.6
2004-06-08 11:14:00 51°8.41 2°13.346 44.7 2.2 22 26.7
2004-06-08 11:15:00 51°8.44 2°13.371 52.9 2 31 26.7
2004-06-08 11:16:00 51°8.467 2°13.406 57.3 2.2 41 27.5
2004-06-08 11:17:00 51°8.493 2°13.45 61.5 2.4 49 27.8
2004-06-08 11:18:00 51°8.517 2°13.5 67.8 2.4 59 28.3
2004-06-08 11:19:05 51°8.537 2°13.56 69.1 2.4 63 28.2
2004-06-08 11:20:05 51°8.554 2°13.615 71.8 2.3 66 28
2004-06-08 11:21:05 51°8.569 2°13.671 72.9 2.3 65 27.3
2004-06-08 11:22:08 51°8.584 2°13.73 75.4 2.3 69 27.2
2004-06-08 11:23:05 51°8.596 2°13.784 78.9 2.3 76 26.2
2004-06-08 11:24:07 51°8.606 2°13.844 77.8 2.3 72 25.5
2004-06-08 11:25:07 51°8.618 2°13.903 76.7 2.4 71 22.8
2004-06-08 11:26:08 51°8.632 2°13.961 77.4 2.3 73 19.9
2004-06-08 11:27:07 51°8.645 2°14.017 76.7 2.3 70 14.7
2004-06-08 11:28:05 51°8.663 2°14.071 74 2.4 60 12.3
2004-06-08 11:29:05 51°8.68 2°14.124 80.6 2.2 71 11.8
2004-06-08 11:30:07 51°8.688 2°14.18 89.4 2.1 83 12
2004-06-08 11:31:08 51°8.691 2°14.243 87.6 2.5 81 11.3
2004-06-08 11:32:07 51°8.699 2°14.311 87 2.8 79 11.4
2004-06-08 11:33:07 51°8.706 2°14.382 88.9 2.7 82 11.5
2004-06-08 11:34:07 51°8.711 2°14.455 88.7 2.8 84 11.6
2004-06-08 11:35:07 51°8.716 2°14.529 89 2.9 82 11.6
2004-06-08 11:36:06 51°8.722 2°14.602 87.8 2.8 81 11.8
2004-06-08 11:37:07 51°8.728 2°14.676 88.3 2.8 83 12
2004-06-08 11:38:07 51°8.734 2°14.75 88.1 2.9 86 12
2004-06-08 11:39:12 51°8.739 2°14.832 88.7 2.9 86 12.1
2004-06-08 11:40:12 51°8.742 2°14.909 88.6 2.9 86 12.5
2004-06-08 11:41:12 51°8.746 2°14.985 88.3 2.9 84 12.7
2004-06-08 11:42:12 51°8.749 2°15.062 88.8 2.9 91 12.9
2004-06-08 11:43:12 51°8.749 2°15.138 91.8 2.9 92 13
2004-06-08 11:44:12 51°8.741 2°15.21 98.9 2.7 102 13.4
2004-06-08 11:45:12 51°8.724 2°15.276 106 2.7 116 14.2
2004-06-08 11:46:12 51°8.697 2°15.335 115.7 2.8 132 14.9
2004-06-08 11:47:12 51°8.659 2°15.38 126.2 2.6 153 16.2
2004-06-08 11:48:17 51°8.617 2°15.392 143.7 2.3 182 16.9
2004-06-08 11:49:20 51°8.578 2°15.378 153.9 2.3 200 17.2
2004-06-08 11:50:21 51°8.545 2°15.36 143.7 1.9 198 16.9
2004-06-08 11:51:22 51°8.52 2°15.35 120.3 1.2 193 17.7
2004-06-08 11:52:21 51°8.506 2°15.345 101.1 0.7 191 17.1
2004-06-08 11:53:22 51°8.498 2°15.342 86.8 0.4 190 17.5
2004-06-08 11:54:21 51°8.497 2°15.34 65.7 0.2 338 17.3
2004-06-08 11:55:22 51°8.508 2°15.332 40.1 1.1 328 17.2
2004-06-08 11:56:21 51°8.526 2°15.31 20.8 1.7 318 16.9
2004-06-08 11:57:22 51°8.548 2°15.271 0.7 2.1 308 16.3
2004-06-08 11:58:21 51°8.569 2°15.217 341.3 2.7 297 16.1
2004-06-08 11:59:22 51°8.587 2°15.143 318.8 3.1 285 15.2
2004-06-08 12:00:22 51°8.595 2°15.059 292.1 3.2 274 14.8
2004-06-08 12:01:22 51°8.592 2°14.973 270.1 3.2 262 14.4
2004-06-08 12:02:22 51°8.574 2°14.881 235.5 4.3 242 14.1
2004-06-08 12:03:22 51°8.516 2°14.831 160.7 4 180 14
2004-06-08 12:04:22 51°8.376 2°14.878 165.2 10.5 170 14.3
2004-06-08 12:05:22 51°8.186 2°14.879 178.8 12 184 14.4
2004-06-08 12:06:22 51°7.965 2°14.821 191.7 14 198 14.7
2004-06-08 12:07:22 51°7.75 2°14.652 209.3 14.6 209 15
2004-06-08 12:08:22 51°7.551 2°14.455 213.5 11.9 209 15.1
2004-06-08 12:09:22 51°7.442 2°14.466 126.9 4.3 142 16.3
2004-06-08 12:10:22 51°7.431 2°14.528 62.9 1.6 79 16.8
2004-06-08 12:11:22 51°7.446 2°14.566 52.4 1.8 51 17.8
2004-06-08 12:12:22 51°7.458 2°14.615 73.7 2.3 87 17.9
2004-06-08 12:13:22 51°7.449 2°14.681 88.7 2.7 109 18.8
2004-06-08 12:14:22 51°7.427 2°14.751 98.4 3.1 121 19
2004-06-08 12:15:22 51°7.397 2°14.817 100.8 2.9 124 19.6
2004-06-08 12:16:22 51°7.378 2°14.879 85.5 2.5 107 19.4
2004-06-08 12:17:22 51°7.378 2°14.939 67.3 2.2 81 19.3
2004-06-08 12:18:22 51°7.386 2°14.999 67.5 2.4 78 19.6
2004-06-08 12:19:22 51°7.402 2°15.057 58.7 2.4 61 19.7
2004-06-08 12:20:22 51°7.422 2°15.112 58.7 2.4 62 19.3
2004-06-08 12:21:22 51°7.437 2°15.172 64.1 2.5 69 19.4
2004-06-08 12:22:21 51°7.452 2°15.231 62.9 2.4 68 18.9
2004-06-08 12:23:22 51°7.467 2°15.291 62.1 2.4 67 19.3
2004-06-08 12:24:22 51°7.482 2°15.349 63.1 2.4 71 18.9
2004-06-08 12:25:22 51°7.496 2°15.408 63.8 2.4 72 19.1
2004-06-08 12:26:22 51°7.51 2°15.468 63.5 2.4 71 18.7
2004-06-08 12:27:22 51°7.525 2°15.527 62.3 2.4 66 18.3
2004-06-08 12:28:20 51°7.54 2°15.585 63.5 2.5 68 18.1
2004-06-08 12:29:21 51°7.557 2°15.647 62.4 2.5 64 18
2004-06-08 12:30:22 51°7.574 2°15.709 63.2 2.6 65 18.1
2004-06-08 12:31:22 51°7.593 2°15.77 63.1 2.6 66 17.9
2004-06-08 12:32:22 51°7.611 2°15.832 63.2 2.6 64 17.3
2004-06-08 12:33:22 51°7.631 2°15.894 63 2.7 64 18
2004-06-08 12:34:22 51°7.65 2°15.959 64.5 2.7 67 17.6
2004-06-08 12:35:22 51°7.67 2°16.023 62.7 2.7 63 17.1
2004-06-08 12:36:22 51°7.69 2°16.088 62.9 2.7 64 17
2004-06-08 12:37:21 51°7.71 2°16.15 63.1 2.8 61 17
2004-06-08 12:38:22 51°7.732 2°16.216 62.7 2.8 59 17.7
2004-06-08 12:39:22 51°7.755 2°16.281 63.5 2.8 62 16.7
2004-06-08 12:40:22 51°7.778 2°16.346 63.3 2.8 62 16.4
2004-06-08 12:41:20 51°7.801 2°16.408 62.6 2.8 58 16
2004-06-08 12:42:22 51°7.825 2°16.475 63.8 2.9 61 16.5
2004-06-08 12:43:22 51°7.849 2°16.54 63.3 2.9 61 16.3
2004-06-08 12:44:22 51°7.874 2°16.606 63.4 2.9 58 16.1
2004-06-08 12:45:22 51°7.899 2°16.671 62.7 2.9 58 15.2
2004-06-08 12:46:22 51°7.924 2°16.736 63.4 2.9 59 15.4
2004-06-08 12:47:22 51°7.948 2°16.801 63.6 2.9 61 15
2004-06-08 12:48:22 51°7.97 2°16.866 67.1 2.8 65 14.7
2004-06-08 12:49:22 51°7.985 2°16.936 74.3 2.8 72 14.1
2004-06-08 12:50:22 51°7.994 2°17.009 81.3 2.8 85 13.1
2004-06-08 12:51:22 51°7.995 2°17.083 88.5 2.8 95 11.9
2004-06-08 12:52:22 51°7.987 2°17.149 97.1 2.2 109 9.7
2004-06-08 12:53:22 51°7.97 2°17.192 109.5 1.9 138 9.1
2004-06-08 12:54:22 51°7.949 2°17.237 100.6 2.9 105 8.9
2004-06-08 12:55:22 51°8.007 2°17.328 42.8 8.4 35 9.4
2004-06-08 12:56:22 51°8.106 2°17.552 77.9 11.2 77 9.6
2004-06-08 12:57:22 51°8.121 2°17.856 87.4 11.6 86 9.5
2004-06-08 12:58:22 51°8.136 2°18.167 87.5 11.8 86 10
2004-06-08 12:59:20 51°8.146 2°18.469 88 11.8 87 10.6
2004-06-08 13:00:22 51°8.156 2°18.795 88.6 12 88 11.2
2004-06-08 13:01:21 51°8.163 2°19.107 87.4 12 87 12.1
2004-06-08 13:02:22 51°8.168 2°19.432 88.3 12.1 88 12.5
2004-06-08 13:03:22 51°8.172 2°19.754 88.5 12.2 88 12.1
2004-06-08 13:04:21 51°8.207 2°19.964 53.7 5.1 52 12.5
2004-06-08 13:05:26 51°8.246 2°20.029 40.6 2.4 37 12.8
2004-06-08 13:06:28 51°8.281 2°20.057 31 2.3 26 13.4
2004-06-08 13:07:28 51°8.311 2°20.09 46.3 2.2 45 13.8
2004-06-08 13:08:26 51°8.329 2°20.14 65.2 2.3 72 14.3
2004-06-08 13:09:26 51°8.341 2°20.207 71.1 2.9 76 14.3
2004-06-08 13:10:26 51°8.353 2°20.281 67.8 2.9 72 14.2
2004-06-08 13:11:27 51°8.37 2°20.355 65.3 3 71 14.3
2004-06-08 13:12:27 51°8.386 2°20.43 69.6 3.1 73 13.9
2004-06-08 13:13:27 51°8.397 2°20.51 72.1 3.1 77 14.3
2004-06-08 13:14:28 51°8.41 2°20.592 72.7 3.1 77 13.9
2004-06-08 13:15:27 51°8.421 2°20.67 71.4 3.1 76 13.6
2004-06-08 13:16:28 51°8.434 2°20.75 70.2 3.1 75 13.6
2004-06-08 13:17:26 51°8.446 2°20.828 71.5 3.1 75 13.8
2004-06-08 13:18:26 51°8.458 2°20.909 70.4 3.1 75 13.8
2004-06-08 13:19:26 51°8.471 2°20.989 71.9 3.2 76 13.2
2004-06-08 13:20:27 51°8.483 2°21.072 71.5 3.2 78 13
2004-06-08 13:21:28 51°8.498 2°21.156 70.6 3.2 76 13
2004-06-08 13:22:26 51°8.511 2°21.236 70.9 3.2 75 12.7
2004-06-08 13:23:26 51°8.525 2°21.32 71.5 3.3 77 11
2004-06-08 13:24:28 51°8.538 2°21.408 72.3 3.3 78 11.5
2004-06-08 13:25:26 51°8.55 2°21.49 71.7 3.3 76 10.9
2004-06-08 13:26:27 51°8.563 2°21.578 70.8 3.3 73 11.5
2004-06-08 13:27:27 51°8.583 2°21.658 59.2 3.3 64 10.8
2004-06-08 13:28:28 51°8.611 2°21.734 54.9 3.3 58 11.1
2004-06-08 13:29:28 51°8.64 2°21.806 53.5 3.2 56 11
2004-06-08 13:30:27 51°8.669 2°21.868 47.8 2.9 50 11.5
2004-06-08 13:31:27 51°8.7 2°21.928 47.7 3 51 11.4
2004-06-08 13:32:27 51°8.731 2°21.989 49.7 2.9 52 11.6
2004-06-08 13:33:28 51°8.761 2°22.052 48.5 2.9 50 12.3
2004-06-08 13:34:27 51°8.796 2°22.1 33.3 2.8 33 13.3
2004-06-08 13:35:27 51°8.838 2°22.133 22.7 2.8 21 13.8
2004-06-08 13:36:27 51°8.883 2°22.156 20.5 2.8 16 15
2004-06-08 13:37:27 51°8.928 2°22.181 23.7 2.9 22 15.2
2004-06-08 13:38:27 51°8.97 2°22.212 27.9 2.8 26 15.5
2004-06-08 13:39:27 51°9.012 2°22.246 28.1 2.8 29 15.6
2004-06-08 13:40:27 51°9.053 2°22.278 28.4 2.7 26 15.7
2004-06-08 13:41:28 51°9.091 2°22.315 35.2 2.5 34 15.8
2004-06-08 13:42:26 51°9.119 2°22.349 40.1 1.9 43 14.8
2004-06-08 13:43:28 51°9.139 2°22.383 44.9 1.6 49 14.4
2004-06-08 13:44:28 51°9.154 2°22.414 47.1 1.4 61 15
2004-06-08 13:45:27 51°9.164 2°22.44 47.5 1.2 58 17.3
2004-06-08 13:46:28 51°9.174 2°22.463 42.5 0.9 52 17.5
2004-06-08 13:47:28 51°9.19 2°22.485 27.4 1.8 28 16.7
2004-06-08 13:48:27 51°9.222 2°22.493 0.7 2 357 16
2004-06-08 13:49:28 51°9.255 2°22.475 336.5 2.1 326 16.1
2004-06-08 13:50:28 51°9.278 2°22.431 312.9 2.2 301 16.2
2004-06-08 13:51:28 51°9.29 2°22.375 292.2 2.3 280 17.2
2004-06-08 13:52:25 51°9.29 2°22.317 273.4 2.4 261 17.9
2004-06-08 13:53:28 51°9.276 2°22.257 255.1 2.1 238 17.3
2004-06-08 13:54:28 51°9.254 2°22.218 236.9 1.9 216 17.6
2004-06-08 13:55:28 51°9.226 2°22.198 213.4 1.9 197 17.9
2004-06-08 13:56:27 51°9.195 2°22.191 194.3 2 181 15.9
2004-06-08 13:57:28 51°9.161 2°22.196 177.6 2 169 16
2004-06-08 13:58:28 51°9.125 2°22.245 117.4 3.6 117 16.1
2004-06-08 13:59:28 51°9.161 2°22.369 51.5 8.3 50 15.6
2004-06-08 14:00:27 51°9.288 2°22.607 53.3 12.8 50 15.2
2004-06-08 14:01:25 51°9.422 2°22.86 53.7 13 50 15.9
2004-06-08 14:02:27 51°9.565 2°23.133 53.9 13 50 14.7
2004-06-08 14:03:26 51°9.701 2°23.395 54.1 13.1 50 14.7
2004-06-08 14:04:27 51°9.841 2°23.668 56.1 13 54 13.3
2004-06-08 14:05:26 51°9.957 2°23.956 61.1 13.3 58 11.7
2004-06-08 14:06:27 51°10.077 2°24.255 61.1 13.2 58 11.6
2004-06-08 14:07:27 51°10.197 2°24.55 60.7 13.3 57 13.2
2004-06-08 14:08:26 51°10.314 2°24.842 60.4 13.3 58 14.8
2004-06-08 14:09:26 51°10.416 2°25.155 66.9 13.3 63 16.6
2004-06-08 14:10:28 51°10.519 2°25.479 66.5 13.2 63 17.9
2004-06-08 14:11:28 51°10.621 2°25.789 66.4 13.2 62 18.9
2004-06-08 14:12:28 51°10.723 2°26.097 66.7 13.1 62 20.3
2004-06-08 14:13:26 51°10.824 2°26.39 66.1 13 61 21.4
2004-06-08 14:14:26 51°10.917 2°26.699 72.4 13 67 22.9
2004-06-08 14:15:26 51°11.002 2°27.015 72 13 67 23
2004-06-08 14:16:28 51°11.09 2°27.345 71.9 13.1 67 23.9
2004-06-08 14:17:28 51°11.176 2°27.665 71.9 13.2 68 23.1
2004-06-08 14:18:27 51°11.26 2°27.98 71 13.2 67 23.3
2004-06-08 14:19:27 51°11.345 2°28.3 71 13.1 67 24.7
2004-06-08 14:20:25 51°11.427 2°28.61 71.6 13.2 67 23.9
2004-06-08 14:21:27 51°11.517 2°28.942 71.6 13.2 67 25.1
2004-06-08 14:22:28 51°11.605 2°29.269 71.8 13.2 67 25.9
2004-06-08 14:23:28 51°11.691 2°29.59 71.8 13.2 67 24.1
2004-06-08 14:24:27 51°11.777 2°29.905 71.1 13.2 66 24.4
2004-06-08 14:25:28 51°11.867 2°30.232 71.1 13.2 67 24.4
2004-06-08 14:26:28 51°11.954 2°30.555 71.2 13.3 66 24.3
2004-06-08 14:27:26 51°12.04 2°30.867 71.6 13.3 67 23.9
2004-06-08 14:28:32 51°12.136 2°31.224 71 13.4 65 24.5
2004-06-08 14:29:33 51°12.226 2°31.554 71.2 13.4 66 23.9
2004-06-08 14:30:33 51°12.315 2°31.881 70.8 13.5 66 23.5
2004-06-08 14:31:33 51°12.403 2°32.208 71.8 13.5 67 21.2
2004-06-08 14:32:33 51°12.493 2°32.536 71.2 13.5 67 19.3
2004-06-08 14:33:32 51°12.581 2°32.86 71.6 13.5 66 17.9
2004-06-08 14:34:33 51°12.673 2°33.196 71.1 13.6 66 16.5
2004-06-08 14:35:33 51°12.763 2°33.526 71.6 13.6 66 17.1
2004-06-08 14:36:32 51°12.853 2°33.851 71.4 13.5 66 17.7
2004-06-08 14:37:33 51°12.945 2°34.185 71.8 13.5 67 18.8
2004-06-08 14:38:33 51°13.037 2°34.51 71.1 13.5 66 19.2
2004-06-08 14:39:33 51°13.127 2°34.835 70.7 13.4 66 19.3
2004-06-08 14:40:33 51°13.216 2°35.159 71.5 13.4 66 18.9
2004-06-08 14:41:33 51°13.305 2°35.486 70.7 13.5 66 19.1
2004-06-08 14:42:32 51°13.394 2°35.807 70.3 13.5 66 19.4
2004-06-08 14:43:33 51°13.482 2°36.143 71.1 13.5 67 19.1
2004-06-08 14:44:41 51°13.58 2°36.519 70.9 13.6 67 20.3
2004-06-08 14:45:41 51°13.664 2°36.851 71.1 13.5 68 20.8
2004-06-08 14:46:41 51°13.748 2°37.183 71.4 13.5 68 20.5
2004-06-08 14:47:40 51°13.83 2°37.51 71.2 13.5 68 20.4
2004-06-08 14:48:40 51°13.912 2°37.845 72.5 13.6 71 17.6
2004-06-08 14:49:40 51°13.978 2°38.191 76.6 13.6 73 17.7
2004-06-08 14:50:40 51°14.041 2°38.538 76.8 13.6 74 15.8
2004-06-08 14:51:41 51°14.107 2°38.892 76.3 13.7 74 12.7
2004-06-08 14:52:41 51°14.171 2°39.243 76.4 13.8 73 15.2
2004-06-08 14:53:41 51°14.237 2°39.592 76.9 13.8 74 15.3
2004-06-08 14:54:41 51°14.305 2°39.942 75.6 13.9 72 15.3
2004-06-08 14:55:41 51°14.353 2°40.301 90.9 14 88 15.6
2004-06-08 14:56:40 51°14.354 2°40.666 94.1 14.1 90 15.7
2004-06-08 14:57:40 51°14.354 2°41.039 94.2 14.1 89 16.3
2004-06-08 14:58:41 51°14.351 2°41.42 94.8 14.1 90 16.4
2004-06-08 14:59:41 51°14.347 2°41.794 95 14.1 92 18.2
2004-06-08 15:00:41 51°14.352 2°42.165 88.7 13.9 83 19.6
2004-06-08 15:01:41 51°14.386 2°42.531 85.9 13.9 82 19.4
2004-06-08 15:02:41 51°14.418 2°42.896 86.5 13.9 82 19.4
2004-06-08 15:03:40 51°14.448 2°43.256 86.7 13.9 83 18.8
2004-06-08 15:04:40 51°14.476 2°43.621 87.2 14 83 18.4
2004-06-08 15:05:42 51°14.507 2°44.002 87.4 14.1 83 17.9
2004-06-08 15:06:50 51°14.543 2°44.421 86.9 14.1 82 16.5
2004-06-08 15:07:50 51°14.573 2°44.791 87.8 14.1 82 15.1
2004-06-08 15:08:50 51°14.606 2°45.163 87.2 14.2 82 13.5
2004-06-08 15:09:54 51°14.641 2°45.562 87.4 14.2 82 11.7
2004-06-08 15:10:58 51°14.676 2°45.961 87.4 14.4 82 10.9
2004-06-08 15:11:58 51°14.709 2°46.337 87.9 14.3 82 12
2004-06-08 15:12:57 51°14.744 2°46.706 87.6 14.3 82 13.8
2004-06-08 15:13:58 51°14.755 2°47.09 94.8 14.2 89 15.3
2004-06-08 15:14:58 51°14.76 2°47.468 95.2 14.3 89 15.2
2004-06-08 15:15:58 51°14.767 2°47.846 94.9 14.2 88 14.7
2004-06-08 15:16:58 51°14.775 2°48.22 93.9 14.1 88 14.2
2004-06-08 15:17:58 51°14.784 2°48.592 94.5 14.1 88 14.7
2004-06-08 15:18:58 51°14.794 2°48.965 94.3 14.1 88 14.9
2004-06-08 15:19:58 51°14.812 2°49.338 91.4 14.1 85 14.9
2004-06-08 15:20:58 51°14.83 2°49.71 92.8 14.1 86 14.8
2004-06-08 15:21:58 51°14.85 2°50.083 92.5 14.1 85 14.7
2004-06-08 15:22:58 51°14.869 2°50.457 92 14.1 85 14.6
2004-06-08 15:23:57 51°14.888 2°50.827 91.8 14.1 85 14.3
2004-06-08 15:24:59 51°14.908 2°51.216 91.9 14.2 85 14
2004-06-08 15:25:58 51°14.926 2°51.586 92.1 14.2 85 13.6
2004-06-08 15:26:58 51°14.945 2°51.963 92.1 14.1 86 13.2
2004-06-08 15:27:58 51°14.964 2°52.339 92.7 14.2 86 12.9
2004-06-08 15:29:02 51°14.978 2°52.74 98.8 14.1 93 12.9
2004-06-08 15:30:09 51°14.935 2°53.151 107 14.1 100 13
2004-06-08 15:31:09 51°14.895 2°53.52 107 14.1 100 12.3
2004-06-08 15:32:09 51°14.819 2°53.869 121.1 14.1 113 12
2004-06-08 15:33:09 51°14.713 2°54.193 129.7 14 119 12.6